createdAt,value
2023-04-26T00:00:09.871Z,22.2
2023-04-26T00:01:15.136Z,22.21
2023-04-26T00:02:20.381Z,22.21
2023-04-26T00:03:25.968Z,22.19
2023-04-26T00:04:31.652Z,22.2
2023-04-26T00:05:37.340Z,22.18
2023-04-26T00:06:42.739Z,22.18
2023-04-26T00:07:47.944Z,22.21
2023-04-26T00:08:53.356Z,22.19
2023-04-26T00:09:59.497Z,22.19
2023-04-26T00:11:04.750Z,22.2
2023-04-26T00:12:09.982Z,22.19
2023-04-26T00:13:15.166Z,22.18
2023-04-26T00:14:20.376Z,22.18
2023-04-26T00:15:25.595Z,22.17
2023-04-26T00:16:30.819Z,22.19
2023-04-26T00:17:36.296Z,22.19
2023-04-26T00:18:41.837Z,22.17
2023-04-26T00:19:47.125Z,22.18
2023-04-26T00:20:52.321Z,22.18
2023-04-26T00:21:57.509Z,22.18
2023-04-26T00:23:02.723Z,22.18
2023-04-26T00:24:07.904Z,22.17
2023-04-26T00:25:13.077Z,22.15
2023-04-26T00:26:18.283Z,22.15
2023-04-26T00:27:23.492Z,22.16
2023-04-26T00:28:28.695Z,22.14
2023-04-26T00:29:33.936Z,22.14
2023-04-26T00:30:39.180Z,22.15
2023-04-26T00:31:44.365Z,22.14
2023-04-26T00:32:49.680Z,22.15
2023-04-26T00:33:55.040Z,22.15
2023-04-26T00:35:00.242Z,22.15
2023-04-26T00:36:05.433Z,22.15
2023-04-26T00:37:10.671Z,22.15
2023-04-26T00:38:15.832Z,22.14
2023-04-26T00:39:21.057Z,22.15
2023-04-26T00:40:26.258Z,22.14
2023-04-26T00:41:31.445Z,22.13
2023-04-26T00:42:36.623Z,22.14
2023-04-26T00:43:41.827Z,22.13
2023-04-26T00:44:47.046Z,22.13
2023-04-26T00:45:52.328Z,22.11
2023-04-26T00:46:57.695Z,22.11
2023-04-26T00:48:02.902Z,22.12
2023-04-26T00:49:08.240Z,22.13
2023-04-26T00:50:13.434Z,22.13
2023-04-26T00:51:18.648Z,22.12
2023-04-26T00:52:23.874Z,22.12
2023-04-26T00:53:29.067Z,22.12
2023-04-26T00:54:34.257Z,22.12
2023-04-26T00:55:39.471Z,22.12
2023-04-26T00:56:44.761Z,22.12
2023-04-26T00:57:49.984Z,22.11
2023-04-26T00:58:55.296Z,22.11
2023-04-26T01:00:00.544Z,22.11
2023-04-26T01:01:05.829Z,22.11
2023-04-26T01:02:11.267Z,22.11
2023-04-26T01:03:16.777Z,22.1
2023-04-26T01:04:22.443Z,22.1
2023-04-26T01:05:28.078Z,22.1
2023-04-26T01:06:33.292Z,22.1
2023-04-26T01:07:38.641Z,22.11
2023-04-26T01:08:43.964Z,22.1
2023-04-26T01:09:49.151Z,22.1
2023-04-26T01:10:54.332Z,22.1
2023-04-26T01:11:59.538Z,22.07
2023-04-26T01:13:04.715Z,22.08
2023-04-26T01:14:09.948Z,22.08
2023-04-26T01:15:15.180Z,22.09
2023-04-26T01:16:20.381Z,22.09
2023-04-26T01:17:25.826Z,22.08
2023-04-26T01:18:31.132Z,22.06
2023-04-26T01:19:36.345Z,22.06
2023-04-26T01:20:41.716Z,22.02
2023-04-26T01:21:46.963Z,22.06
2023-04-26T01:22:52.177Z,22.08
2023-04-26T01:23:57.367Z,22.08
2023-04-26T01:25:02.547Z,22.08
2023-04-26T01:26:07.733Z,22.08
2023-04-26T01:27:12.929Z,22.06
2023-04-26T01:28:18.148Z,22.05
2023-04-26T01:29:23.324Z,22.07
2023-04-26T01:30:28.506Z,22.05
2023-04-26T01:31:33.741Z,22.04
2023-04-26T01:32:39.355Z,22.06
2023-04-26T01:33:44.669Z,22.06
2023-04-26T01:34:49.864Z,22.06
2023-04-26T01:35:55.034Z,22.06
2023-04-26T01:37:00.219Z,22.06
2023-04-26T01:38:05.409Z,22.04
2023-04-26T01:39:10.674Z,22.04
2023-04-26T01:40:15.834Z,22.05
2023-04-26T01:41:21.033Z,22.05
2023-04-26T01:42:26.188Z,22.05
2023-04-26T01:43:31.383Z,22.03
2023-04-26T01:44:36.551Z,22.04
2023-04-26T01:45:41.760Z,22.03
2023-04-26T01:46:46.983Z,22.04
2023-04-26T01:47:52.470Z,22.02
2023-04-26T01:48:57.796Z,22.02
2023-04-26T01:50:02.990Z,22.04
2023-04-26T01:51:08.174Z,22.03
2023-04-26T01:52:13.364Z,22.03
2023-04-26T01:53:18.586Z,22.02
2023-04-26T01:54:23.792Z,22.03
2023-04-26T01:55:29.073Z,22.03
2023-04-26T01:56:34.272Z,22.03
2023-04-26T01:57:39.473Z,22.03
2023-04-26T01:58:44.658Z,22.03
2023-04-26T01:59:49.862Z,22.02
2023-04-26T02:00:55.089Z,22.02
2023-04-26T02:02:00.411Z,22
2023-04-26T02:03:06.193Z,22
2023-04-26T02:04:11.882Z,22.02
2023-04-26T02:05:17.094Z,22
2023-04-26T02:06:22.655Z,22.01
2023-04-26T02:07:27.872Z,21.99
2023-04-26T02:08:33.081Z,22.02
2023-04-26T02:09:38.269Z,22.01
2023-04-26T02:10:43.460Z,22.02
2023-04-26T02:11:48.688Z,22.01
2023-04-26T02:12:53.887Z,21.99
2023-04-26T02:13:59.123Z,21.98
2023-04-26T02:15:04.302Z,22
2023-04-26T02:16:09.596Z,22
2023-04-26T02:17:14.927Z,21.98
2023-04-26T02:18:20.099Z,22
2023-04-26T02:19:25.304Z,22
2023-04-26T02:20:30.528Z,22
2023-04-26T02:21:35.711Z,22
2023-04-26T02:22:40.907Z,22
2023-04-26T02:23:46.125Z,21.99
2023-04-26T02:24:51.348Z,21.99
2023-04-26T02:25:56.562Z,21.99
2023-04-26T02:27:01.828Z,21.99
2023-04-26T02:28:07.031Z,21.98
2023-04-26T02:29:12.255Z,21.99
2023-04-26T02:30:17.437Z,21.99
2023-04-26T02:31:23.281Z,21.98
2023-04-26T02:32:28.689Z,21.98
2023-04-26T02:33:34.093Z,21.98
2023-04-26T02:34:39.313Z,21.96
2023-04-26T02:35:44.553Z,21.97
2023-04-26T02:36:49.728Z,21.98
2023-04-26T02:37:54.948Z,21.98
2023-04-26T02:39:00.166Z,21.95
2023-04-26T02:40:05.347Z,21.95
2023-04-26T02:41:10.548Z,21.98
2023-04-26T02:42:15.764Z,21.97
2023-04-26T02:43:21.079Z,21.97
2023-04-26T02:44:26.355Z,21.95
2023-04-26T02:45:31.548Z,21.96
2023-04-26T02:46:36.776Z,21.97
2023-04-26T02:47:42.180Z,21.96
2023-04-26T02:48:47.593Z,21.96
2023-04-26T02:49:53.240Z,21.95
2023-04-26T02:50:58.458Z,21.95
2023-04-26T02:52:03.677Z,21.95
2023-04-26T02:53:08.885Z,21.93
2023-04-26T02:54:14.109Z,21.95
2023-04-26T02:55:19.311Z,21.93
2023-04-26T02:56:24.529Z,21.92
2023-04-26T02:57:29.694Z,21.93
2023-04-26T02:58:34.955Z,21.95
2023-04-26T02:59:40.180Z,21.92
2023-04-26T03:00:45.382Z,21.94
2023-04-26T03:01:50.953Z,21.93
2023-04-26T03:02:56.358Z,21.94
2023-04-26T03:04:02.036Z,21.93
2023-04-26T03:05:07.624Z,21.94
2023-04-26T03:06:12.845Z,21.94
2023-04-26T03:07:18.064Z,21.94
2023-04-26T03:08:23.289Z,21.94
2023-04-26T03:09:28.608Z,21.93
2023-04-26T03:10:38.953Z,21.93
2023-04-26T03:11:44.167Z,21.9
2023-04-26T03:12:52.143Z,21.91
2023-04-26T03:13:57.380Z,21.92
2023-04-26T03:15:02.622Z,21.9
2023-04-26T03:16:07.902Z,21.91
2023-04-26T03:17:13.160Z,21.91
2023-04-26T03:18:18.423Z,21.92
2023-04-26T03:19:23.590Z,21.9
2023-04-26T03:20:28.797Z,21.92
2023-04-26T03:21:34.105Z,21.92
2023-04-26T03:22:39.309Z,21.9
2023-04-26T03:23:44.498Z,21.89
2023-04-26T03:24:49.737Z,21.91
2023-04-26T03:25:54.933Z,21.91
2023-04-26T03:27:00.228Z,21.91
2023-04-26T03:28:05.453Z,21.91
2023-04-26T03:29:10.659Z,21.91
2023-04-26T03:30:15.900Z,21.91
2023-04-26T03:31:21.110Z,21.88
2023-04-26T03:32:26.456Z,21.9
2023-04-26T03:33:31.878Z,21.9
2023-04-26T03:34:37.153Z,21.89
2023-04-26T03:35:42.330Z,21.89
2023-04-26T03:36:47.531Z,21.88
2023-04-26T03:37:53.464Z,21.89
2023-04-26T03:39:01.883Z,21.87
2023-04-26T03:40:07.150Z,21.88
2023-04-26T03:41:12.504Z,21.86
2023-04-26T03:42:17.707Z,21.88
2023-04-26T03:43:22.947Z,21.88
2023-04-26T03:44:29.855Z,21.88
2023-04-26T03:45:36.160Z,21.86
2023-04-26T03:46:41.424Z,21.86
2023-04-26T03:47:46.716Z,21.86
2023-04-26T03:48:52.307Z,21.87
2023-04-26T03:49:58.001Z,21.87
2023-04-26T03:51:03.265Z,21.86
2023-04-26T03:52:08.472Z,21.83
2023-04-26T03:53:13.720Z,21.87
2023-04-26T03:54:18.952Z,21.87
2023-04-26T03:55:24.166Z,21.85
2023-04-26T03:56:29.356Z,21.85
2023-04-26T03:57:34.518Z,21.85
2023-04-26T03:58:39.724Z,21.87
2023-04-26T03:59:44.946Z,21.87
2023-04-26T04:00:50.138Z,21.86
2023-04-26T04:01:55.320Z,21.85
2023-04-26T04:03:00.652Z,21.86
2023-04-26T04:04:06.646Z,21.86
2023-04-26T04:05:12.967Z,21.86
2023-04-26T04:06:18.668Z,21.86
2023-04-26T04:07:23.836Z,21.87
2023-04-26T04:08:29.027Z,21.87
2023-04-26T04:09:34.184Z,21.86
2023-04-26T04:10:39.458Z,21.86
2023-04-26T04:11:45.777Z,21.86
2023-04-26T04:12:51.617Z,21.84
2023-04-26T04:13:56.853Z,21.82
2023-04-26T04:15:02.022Z,21.86
2023-04-26T04:16:07.288Z,21.84
2023-04-26T04:17:12.592Z,21.86
2023-04-26T04:18:17.815Z,21.85
2023-04-26T04:19:23.022Z,21.86
2023-04-26T04:20:28.217Z,21.84
2023-04-26T04:21:33.407Z,21.84
2023-04-26T04:22:38.630Z,21.86
2023-04-26T04:23:43.811Z,21.86
2023-04-26T04:24:49.032Z,21.84
2023-04-26T04:25:54.203Z,21.83
2023-04-26T04:26:59.413Z,21.83
2023-04-26T04:28:04.614Z,21.85
2023-04-26T04:29:09.874Z,21.84
2023-04-26T04:30:15.055Z,21.85
2023-04-26T04:31:20.312Z,21.85
2023-04-26T04:32:25.799Z,21.83
2023-04-26T04:33:31.084Z,21.85
2023-04-26T04:34:36.281Z,21.85
2023-04-26T04:35:41.518Z,21.84
2023-04-26T04:36:46.733Z,21.85
2023-04-26T04:37:51.952Z,21.84
2023-04-26T04:38:57.255Z,21.83
2023-04-26T04:40:02.473Z,21.83
2023-04-26T04:41:07.678Z,21.84
2023-04-26T04:42:12.880Z,21.85
2023-04-26T04:43:18.075Z,21.85
2023-04-26T04:44:23.272Z,21.85
2023-04-26T04:45:28.466Z,21.85
2023-04-26T04:46:33.726Z,21.85
2023-04-26T04:47:39.061Z,21.85
2023-04-26T04:48:44.495Z,21.85
2023-04-26T04:49:49.739Z,21.85
2023-04-26T04:50:54.945Z,21.85
2023-04-26T04:52:00.130Z,21.84
2023-04-26T04:53:05.415Z,21.83
2023-04-26T04:54:10.748Z,21.85
2023-04-26T04:55:15.937Z,21.86
2023-04-26T04:56:21.190Z,21.84
2023-04-26T04:57:26.418Z,21.86
2023-04-26T04:58:31.631Z,21.86
2023-04-26T04:59:36.889Z,21.86
2023-04-26T05:00:42.085Z,21.86
2023-04-26T05:01:47.357Z,21.84
2023-04-26T05:02:52.787Z,21.84
2023-04-26T05:03:58.850Z,21.86
2023-04-26T05:05:05.173Z,21.86
2023-04-26T05:06:10.952Z,21.84
2023-04-26T05:07:16.160Z,21.84
2023-04-26T05:08:21.369Z,21.85
2023-04-26T05:09:26.558Z,21.84
2023-04-26T05:10:31.782Z,21.86
2023-04-26T05:11:37.049Z,21.86
2023-04-26T05:12:42.245Z,21.84
2023-04-26T05:13:47.447Z,21.85
2023-04-26T05:14:55.707Z,21.87
2023-04-26T05:16:00.953Z,21.86
2023-04-26T05:17:06.274Z,21.86
2023-04-26T05:18:11.545Z,21.86
2023-04-26T05:19:16.925Z,21.86
2023-04-26T05:20:22.131Z,21.86
2023-04-26T05:21:27.328Z,21.86
2023-04-26T05:22:32.527Z,21.86
2023-04-26T05:23:37.754Z,21.86
2023-04-26T05:24:42.987Z,21.86
2023-04-26T05:25:48.189Z,21.86
2023-04-26T05:26:53.422Z,21.86
2023-04-26T05:27:58.794Z,21.86
2023-04-26T05:29:04.030Z,21.86
2023-04-26T05:30:09.202Z,21.84
2023-04-26T05:31:14.447Z,21.84
2023-04-26T05:32:19.820Z,21.86
2023-04-26T05:33:25.022Z,21.84
2023-04-26T05:34:30.232Z,21.84
2023-04-26T05:35:35.423Z,21.84
2023-04-26T05:36:40.642Z,21.84
2023-04-26T05:37:45.836Z,21.86
2023-04-26T05:38:51.041Z,21.85
2023-04-26T05:39:56.207Z,21.86
2023-04-26T05:41:01.423Z,21.85
2023-04-26T05:42:06.635Z,21.86
2023-04-26T05:43:11.876Z,21.86
2023-04-26T05:44:17.059Z,21.84
2023-04-26T05:45:22.239Z,21.86
2023-04-26T05:46:27.555Z,21.86
2023-04-26T05:47:33.006Z,21.83
2023-04-26T05:48:38.338Z,21.85
2023-04-26T05:49:43.536Z,21.84
2023-04-26T05:50:48.732Z,21.81
2023-04-26T05:51:53.941Z,21.85
2023-04-26T05:52:59.164Z,21.86
2023-04-26T05:54:04.383Z,21.84
2023-04-26T05:55:09.646Z,21.85
2023-04-26T05:56:14.859Z,21.85
2023-04-26T05:57:20.110Z,21.85
2023-04-26T05:58:25.385Z,21.84
2023-04-26T05:59:30.625Z,21.85
2023-04-26T06:00:35.850Z,21.85
2023-04-26T06:01:41.091Z,21.83
2023-04-26T06:02:46.454Z,21.84
2023-04-26T06:03:53.770Z,21.83
2023-04-26T06:05:04.857Z,21.85
2023-04-26T06:06:10.920Z,21.84
2023-04-26T06:07:16.114Z,21.84
2023-04-26T06:08:21.313Z,21.83
2023-04-26T06:09:26.512Z,21.84
2023-04-26T06:10:31.716Z,21.82
2023-04-26T06:11:36.951Z,21.82
2023-04-26T06:12:42.172Z,21.84
2023-04-26T06:13:47.406Z,21.84
2023-04-26T06:14:53.805Z,21.83
2023-04-26T06:15:59.005Z,21.83
2023-04-26T06:17:04.211Z,21.82
2023-04-26T06:18:09.585Z,21.83
2023-04-26T06:19:14.930Z,21.83
2023-04-26T06:20:20.146Z,21.83
2023-04-26T06:21:25.853Z,21.83
2023-04-26T06:22:31.373Z,21.81
2023-04-26T06:23:36.546Z,21.83
2023-04-26T06:24:41.721Z,21.81
2023-04-26T06:25:46.891Z,21.83
2023-04-26T06:26:52.069Z,21.81
2023-04-26T06:27:57.253Z,21.84
2023-04-26T06:29:02.458Z,21.83
2023-04-26T06:30:07.666Z,21.83
2023-04-26T06:31:12.961Z,21.83
2023-04-26T06:32:18.287Z,21.83
2023-04-26T06:33:23.533Z,21.84
2023-04-26T06:34:28.736Z,21.84
2023-04-26T06:35:33.939Z,21.84
2023-04-26T06:36:39.168Z,21.83
2023-04-26T06:37:44.388Z,21.82
2023-04-26T06:38:49.606Z,21.81
2023-04-26T06:39:54.793Z,21.84
2023-04-26T06:40:59.990Z,21.84
2023-04-26T06:42:05.169Z,21.84
2023-04-26T06:43:10.416Z,21.84
2023-04-26T06:44:15.678Z,21.84
2023-04-26T06:45:20.878Z,21.84
2023-04-26T06:46:26.244Z,21.84
2023-04-26T06:47:31.602Z,21.85
2023-04-26T06:48:37.012Z,21.85
2023-04-26T06:49:42.200Z,21.83
2023-04-26T06:50:47.446Z,21.85
2023-04-26T06:51:52.649Z,21.84
2023-04-26T06:52:58.073Z,21.83
2023-04-26T06:54:03.405Z,21.85
2023-04-26T06:55:08.826Z,21.85
2023-04-26T06:56:14.073Z,21.84
2023-04-26T06:57:19.291Z,21.84
2023-04-26T06:58:24.483Z,21.85
2023-04-26T06:59:29.770Z,21.84
2023-04-26T07:00:34.986Z,21.85
2023-04-26T07:01:40.662Z,21.85
2023-04-26T07:02:46.116Z,21.85
2023-04-26T07:03:51.963Z,21.84
2023-04-26T07:04:58.735Z,21.84
2023-04-26T07:06:04.400Z,21.84
2023-04-26T07:07:11.096Z,21.84
2023-04-26T07:08:17.722Z,21.81
2023-04-26T07:09:22.944Z,21.84
2023-04-26T07:10:28.209Z,21.81
2023-04-26T07:11:33.429Z,21.84
2023-04-26T07:12:38.653Z,21.81
2023-04-26T07:13:43.888Z,21.84
2023-04-26T07:14:49.052Z,21.83
2023-04-26T07:15:54.277Z,21.81
2023-04-26T07:16:59.620Z,21.81
2023-04-26T07:18:04.831Z,21.83
2023-04-26T07:19:10.115Z,21.8
2023-04-26T07:20:15.358Z,21.82
2023-04-26T07:21:20.572Z,21.83
2023-04-26T07:22:25.780Z,21.82
2023-04-26T07:23:31.083Z,21.82
2023-04-26T07:24:36.277Z,21.83
2023-04-26T07:25:41.480Z,21.83
2023-04-26T07:26:46.710Z,21.8
2023-04-26T07:27:51.927Z,21.83
2023-04-26T07:28:57.121Z,21.82
2023-04-26T07:30:02.298Z,21.83
2023-04-26T07:31:09.273Z,21.81
2023-04-26T07:32:15.352Z,21.81
2023-04-26T07:33:20.799Z,21.83
2023-04-26T07:34:26.373Z,21.82
2023-04-26T07:35:31.616Z,21.82
2023-04-26T07:36:36.803Z,21.8
2023-04-26T07:37:42.022Z,21.8
2023-04-26T07:38:47.252Z,21.82
2023-04-26T07:39:52.440Z,21.83
2023-04-26T07:41:04.095Z,21.82
2023-04-26T07:42:09.763Z,21.79
2023-04-26T07:43:15.015Z,21.82
2023-04-26T07:44:20.205Z,21.82
2023-04-26T07:45:25.419Z,21.83
2023-04-26T07:46:30.812Z,21.8
2023-04-26T07:47:36.043Z,21.83
2023-04-26T07:48:41.520Z,21.83
2023-04-26T07:49:47.810Z,21.8
2023-04-26T07:50:53.150Z,21.81
2023-04-26T07:51:58.356Z,21.83
2023-04-26T07:53:03.800Z,21.82
2023-04-26T07:54:09.017Z,21.82
2023-04-26T07:55:14.947Z,21.81
2023-04-26T07:56:21.902Z,21.82
2023-04-26T07:57:27.143Z,21.8
2023-04-26T07:58:32.496Z,21.81
2023-04-26T07:59:37.784Z,21.81
2023-04-26T08:00:43.049Z,21.79
2023-04-26T08:01:48.304Z,21.81
2023-04-26T08:02:53.849Z,21.81
2023-04-26T08:04:00.003Z,21.82
2023-04-26T08:05:07.275Z,21.75
2023-04-26T08:06:13.076Z,21.81
2023-04-26T08:07:18.692Z,21.8
2023-04-26T08:08:23.919Z,21.82
2023-04-26T08:09:29.074Z,21.82
2023-04-26T08:10:34.364Z,21.83
2023-04-26T08:11:39.575Z,21.83
2023-04-26T08:12:44.902Z,21.83
2023-04-26T08:13:50.218Z,21.83
2023-04-26T08:14:56.352Z,21.82
2023-04-26T08:16:01.556Z,21.82
2023-04-26T08:17:06.939Z,21.8
2023-04-26T08:18:12.595Z,21.81
2023-04-26T08:19:17.821Z,21.81
2023-04-26T08:20:23.024Z,21.82
2023-04-26T08:21:28.412Z,21.82
2023-04-26T08:22:33.833Z,21.82
2023-04-26T08:23:39.035Z,21.8
2023-04-26T08:24:44.211Z,21.79
2023-04-26T08:25:49.422Z,21.81
2023-04-26T08:26:54.748Z,21.82
2023-04-26T08:27:59.990Z,21.82
2023-04-26T08:29:05.228Z,21.8
2023-04-26T08:30:10.456Z,21.82
2023-04-26T08:31:17.068Z,21.8
2023-04-26T08:32:22.990Z,21.8
2023-04-26T08:33:28.400Z,21.81
2023-04-26T08:34:33.598Z,21.8
2023-04-26T08:35:38.840Z,21.8
2023-04-26T08:36:44.062Z,21.83
2023-04-26T08:37:49.280Z,21.8
2023-04-26T08:38:54.485Z,21.82
2023-04-26T08:39:59.694Z,21.81
2023-04-26T08:41:04.928Z,21.82
2023-04-26T08:42:10.108Z,21.8
2023-04-26T08:43:15.363Z,21.81
2023-04-26T08:44:20.561Z,21.82
2023-04-26T08:45:25.836Z,21.8
2023-04-26T08:46:31.056Z,21.83
2023-04-26T08:47:36.498Z,21.83
2023-04-26T08:48:41.795Z,21.81
2023-04-26T08:49:47.123Z,21.83
2023-04-26T08:50:52.314Z,21.83
2023-04-26T08:51:57.534Z,21.83
2023-04-26T08:53:02.706Z,21.81
2023-04-26T08:54:07.925Z,21.82
2023-04-26T08:55:13.168Z,21.7
2023-04-26T08:56:18.399Z,21.8
2023-04-26T08:57:23.589Z,21.82
2023-04-26T08:58:28.806Z,21.82
2023-04-26T08:59:34.012Z,21.8
2023-04-26T09:00:39.200Z,21.82
2023-04-26T09:01:44.494Z,21.8
2023-04-26T09:02:50.174Z,21.82
2023-04-26T09:03:56.951Z,21.83
2023-04-26T09:05:03.540Z,21.83
2023-04-26T09:06:09.264Z,21.82
2023-04-26T09:07:14.432Z,21.82
2023-04-26T09:08:19.691Z,21.82
2023-04-26T09:09:24.905Z,21.82
2023-04-26T09:10:32.472Z,21.8
2023-04-26T09:11:37.829Z,21.8
2023-04-26T09:12:43.077Z,21.81
2023-04-26T09:13:48.300Z,21.81
2023-04-26T09:14:54.034Z,21.81
2023-04-26T09:15:59.468Z,21.82
2023-04-26T09:17:08.248Z,21.82
2023-04-26T09:18:13.465Z,21.8
2023-04-26T09:19:18.726Z,21.81
2023-04-26T09:20:23.951Z,21.81
2023-04-26T09:21:29.316Z,21.8
2023-04-26T09:22:34.552Z,21.82
2023-04-26T09:23:39.784Z,21.79
2023-04-26T09:24:44.969Z,21.81
2023-04-26T09:25:50.191Z,21.8
2023-04-26T09:26:55.413Z,21.82
2023-04-26T09:28:00.639Z,21.82
2023-04-26T09:29:05.828Z,21.83
2023-04-26T09:30:11.030Z,21.82
2023-04-26T09:31:16.303Z,21.8
2023-04-26T09:32:21.633Z,21.83
2023-04-26T09:33:26.894Z,21.81
2023-04-26T09:34:32.144Z,21.83
2023-04-26T09:35:37.348Z,21.84
2023-04-26T09:36:42.534Z,21.84
2023-04-26T09:37:57.165Z,21.83
2023-04-26T09:39:14.381Z,21.84
2023-04-26T09:40:19.612Z,21.83
2023-04-26T09:41:24.869Z,21.81
2023-04-26T09:42:30.112Z,21.83
2023-04-26T09:43:35.852Z,21.83
2023-04-26T09:44:41.130Z,21.83
2023-04-26T09:45:46.325Z,21.83
2023-04-26T09:46:51.590Z,21.83
2023-04-26T09:47:57.019Z,21.81
2023-04-26T09:49:02.427Z,21.82
2023-04-26T09:50:07.683Z,21.83
2023-04-26T09:51:13.088Z,21.81
2023-04-26T09:52:18.339Z,21.82
2023-04-26T09:53:23.562Z,21.82
2023-04-26T09:54:28.796Z,21.81
2023-04-26T09:55:35.622Z,21.82
2023-04-26T09:56:41.131Z,21.79
2023-04-26T09:57:46.329Z,21.81
2023-04-26T09:58:51.641Z,21.81
2023-04-26T09:59:57.580Z,21.79
2023-04-26T10:01:02.920Z,21.79
2023-04-26T10:02:08.367Z,21.8
2023-04-26T10:03:13.992Z,21.73
2023-04-26T10:04:19.717Z,21.78
2023-04-26T10:05:25.188Z,21.8
2023-04-26T10:06:30.373Z,21.78
2023-04-26T10:07:35.756Z,21.79
2023-04-26T10:08:40.951Z,21.8
2023-04-26T10:09:46.289Z,21.8
2023-04-26T10:10:51.547Z,21.8
2023-04-26T10:11:56.761Z,21.8
2023-04-26T10:13:02.009Z,21.79
2023-04-26T10:14:07.213Z,21.79
2023-04-26T10:15:12.491Z,21.78
2023-04-26T10:16:17.746Z,21.79
2023-04-26T10:17:23.129Z,21.78
2023-04-26T10:18:28.432Z,21.78
2023-04-26T10:19:33.664Z,21.78
2023-04-26T10:20:38.864Z,21.78
2023-04-26T10:21:44.099Z,21.78
2023-04-26T10:22:49.437Z,21.76
2023-04-26T10:23:54.721Z,21.77
2023-04-26T10:24:59.924Z,21.78
2023-04-26T10:26:05.216Z,21.78
2023-04-26T10:27:10.472Z,21.76
2023-04-26T10:28:15.684Z,21.77
2023-04-26T10:29:20.878Z,21.77
2023-04-26T10:30:26.223Z,21.75
2023-04-26T10:31:31.432Z,21.77
2023-04-26T10:32:36.806Z,21.77
2023-04-26T10:33:42.128Z,21.77
2023-04-26T10:34:47.341Z,21.75
2023-04-26T10:35:52.531Z,21.77
2023-04-26T10:36:57.705Z,21.74
2023-04-26T10:38:02.923Z,21.76
2023-04-26T10:39:08.111Z,21.77
2023-04-26T10:40:13.332Z,21.76
2023-04-26T10:41:18.528Z,21.76
2023-04-26T10:42:24.633Z,21.74
2023-04-26T10:43:30.980Z,21.76
2023-04-26T10:44:36.189Z,21.75
2023-04-26T10:45:41.555Z,21.74
2023-04-26T10:46:46.849Z,21.75
2023-04-26T10:47:52.056Z,21.73
2023-04-26T10:48:57.382Z,21.74
2023-04-26T10:50:04.985Z,21.73
2023-04-26T10:51:10.639Z,21.74
2023-04-26T10:52:15.910Z,21.73
2023-04-26T10:53:21.228Z,21.73
2023-04-26T10:54:26.674Z,21.74
2023-04-26T10:55:31.871Z,21.74
2023-04-26T10:56:37.075Z,21.74
2023-04-26T10:57:42.323Z,21.73
2023-04-26T10:58:47.523Z,21.72
2023-04-26T10:59:54.811Z,21.74
2023-04-26T11:01:00.244Z,21.73
2023-04-26T11:02:06.234Z,21.74
2023-04-26T11:03:11.530Z,21.74
2023-04-26T11:04:17.334Z,21.73
2023-04-26T11:05:24.835Z,21.73
2023-04-26T11:06:30.652Z,21.73
2023-04-26T11:07:35.859Z,21.74
2023-04-26T11:08:41.074Z,21.72
2023-04-26T11:09:46.260Z,21.74
2023-04-26T11:10:51.461Z,21.75
2023-04-26T11:11:56.703Z,21.74
2023-04-26T11:13:01.917Z,21.75
2023-04-26T11:14:07.224Z,21.75
2023-04-26T11:15:12.408Z,21.73
2023-04-26T11:16:17.623Z,21.75
2023-04-26T11:17:23.242Z,21.74
2023-04-26T11:18:28.502Z,21.74
2023-04-26T11:19:33.708Z,21.74
2023-04-26T11:20:38.927Z,21.74
2023-04-26T11:21:44.123Z,21.73
2023-04-26T11:22:49.321Z,21.75
2023-04-26T11:23:54.508Z,21.73
2023-04-26T11:24:59.827Z,21.73
2023-04-26T11:26:05.022Z,21.74
2023-04-26T11:27:10.272Z,21.74
2023-04-26T11:28:15.500Z,21.72
2023-04-26T11:29:20.712Z,21.72
2023-04-26T11:30:25.909Z,21.73
2023-04-26T11:31:31.143Z,21.73
2023-04-26T11:32:36.682Z,21.71
2023-04-26T11:33:42.128Z,21.4
2023-04-26T11:34:47.380Z,21.73
2023-04-26T11:35:52.567Z,21.73
2023-04-26T11:36:57.760Z,21.73
2023-04-26T11:38:02.966Z,21.71
2023-04-26T11:39:08.297Z,21.73
2023-04-26T11:40:15.087Z,21.73
2023-04-26T11:41:20.256Z,21.73
2023-04-26T11:42:25.480Z,21.73
2023-04-26T11:43:30.760Z,21.73
2023-04-26T11:44:36.040Z,21.73
2023-04-26T11:45:41.308Z,21.71
2023-04-26T11:46:46.534Z,21.73
2023-04-26T11:47:51.970Z,21.73
2023-04-26T11:48:57.346Z,21.72
2023-04-26T11:50:02.554Z,21.72
2023-04-26T11:51:07.907Z,21.72
2023-04-26T11:52:13.246Z,21.72
2023-04-26T11:53:18.436Z,21.7
2023-04-26T11:54:23.626Z,21.7
2023-04-26T11:55:28.814Z,21.72
2023-04-26T11:56:34.016Z,21.72
2023-04-26T11:57:39.254Z,21.72
2023-04-26T11:58:44.430Z,21.72
2023-04-26T11:59:49.604Z,21.69
2023-04-26T12:00:54.799Z,21.71
2023-04-26T12:02:00.104Z,21.71
2023-04-26T12:03:05.881Z,21.71
2023-04-26T12:04:12.217Z,21.71
2023-04-26T12:05:17.835Z,21.71
2023-04-26T12:06:23.258Z,21.71
2023-04-26T12:07:28.439Z,21.69
2023-04-26T12:08:33.958Z,21.7
2023-04-26T12:09:39.260Z,21.7
2023-04-26T12:10:44.441Z,21.7
2023-04-26T12:11:49.659Z,21.69
2023-04-26T12:12:54.880Z,21.71
2023-04-26T12:14:00.060Z,21.71
2023-04-26T12:15:05.382Z,21.69
2023-04-26T12:16:18.665Z,21.72
2023-04-26T12:17:30.852Z,21.71
2023-04-26T12:18:36.405Z,21.7
2023-04-26T12:19:41.600Z,21.71
2023-04-26T12:20:46.875Z,21.7
2023-04-26T12:21:52.116Z,21.7
2023-04-26T12:22:57.351Z,21.7
2023-04-26T12:24:02.630Z,21.68
2023-04-26T12:25:07.857Z,21.7
2023-04-26T12:26:13.089Z,21.7
2023-04-26T12:27:18.266Z,21.7
2023-04-26T12:28:23.568Z,21.68
2023-04-26T12:29:28.765Z,21.68
2023-04-26T12:30:33.997Z,21.7
2023-04-26T12:31:39.230Z,21.7
2023-04-26T12:32:44.692Z,21.7
2023-04-26T12:33:50.065Z,21.7
2023-04-26T12:34:55.313Z,21.7
2023-04-26T12:36:00.527Z,21.7
2023-04-26T12:37:05.936Z,21.71
2023-04-26T12:38:11.330Z,21.7
2023-04-26T12:39:17.357Z,21.69
2023-04-26T12:40:22.879Z,21.7
2023-04-26T12:41:28.148Z,21.71
2023-04-26T12:42:33.377Z,21.71
2023-04-26T12:43:38.580Z,21.7
2023-04-26T12:44:43.831Z,21.7
2023-04-26T12:45:49.067Z,21.7
2023-04-26T12:46:54.325Z,21.68
2023-04-26T12:47:59.594Z,21.67
2023-04-26T12:49:04.967Z,21.7
2023-04-26T12:50:10.204Z,21.69
2023-04-26T12:51:15.458Z,21.68
2023-04-26T12:52:20.686Z,21.68
2023-04-26T12:53:25.916Z,21.68
2023-04-26T12:54:31.134Z,21.68
2023-04-26T12:55:36.350Z,21.7
2023-04-26T12:56:41.580Z,21.7
2023-04-26T12:57:46.824Z,21.7
2023-04-26T12:58:52.232Z,21.71
2023-04-26T12:59:57.490Z,21.71
2023-04-26T13:01:02.713Z,21.69
2023-04-26T13:02:08.059Z,21.71
2023-04-26T13:03:13.428Z,21.7
2023-04-26T13:04:19.480Z,21.71
2023-04-26T13:05:25.257Z,21.72
2023-04-26T13:06:30.464Z,21.7
2023-04-26T13:07:35.662Z,21.72
2023-04-26T13:08:40.943Z,21.7
2023-04-26T13:09:46.140Z,21.71
2023-04-26T13:10:51.376Z,21.71
2023-04-26T13:11:56.581Z,21.71
2023-04-26T13:13:01.781Z,21.69
2023-04-26T13:14:06.969Z,21.71
2023-04-26T13:15:12.207Z,21.71
2023-04-26T13:16:20.427Z,21.71
2023-04-26T13:17:25.873Z,21.7
2023-04-26T13:18:31.345Z,21.71
2023-04-26T13:19:36.584Z,21.72
2023-04-26T13:20:41.809Z,21.7
2023-04-26T13:21:46.997Z,21.7
2023-04-26T13:22:52.228Z,21.72
2023-04-26T13:23:57.576Z,21.73
2023-04-26T13:25:02.876Z,21.72
2023-04-26T13:26:08.115Z,21.73
2023-04-26T13:27:13.361Z,21.73
2023-04-26T13:28:18.647Z,21.7
2023-04-26T13:29:24.196Z,21.72
2023-04-26T13:30:29.553Z,21.73
2023-04-26T13:31:35.099Z,21.72
2023-04-26T13:32:40.616Z,21.7
2023-04-26T13:33:46.031Z,21.73
2023-04-26T13:34:51.396Z,21.72
2023-04-26T13:35:56.579Z,21.73
2023-04-26T13:37:01.829Z,21.71
2023-04-26T13:38:07.034Z,21.73
2023-04-26T13:39:12.338Z,21.74
2023-04-26T13:40:17.554Z,21.71
2023-04-26T13:41:22.733Z,21.72
2023-04-26T13:42:28.148Z,21.72
2023-04-26T13:43:34.154Z,21.73
2023-04-26T13:44:41.308Z,21.73
2023-04-26T13:45:46.526Z,21.74
2023-04-26T13:46:52.078Z,21.75
2023-04-26T13:47:57.529Z,21.72
2023-04-26T13:49:03.012Z,21.75
2023-04-26T13:50:08.247Z,21.72
2023-04-26T13:51:13.493Z,21.73
2023-04-26T13:52:18.691Z,21.75
2023-04-26T13:53:23.921Z,21.73
2023-04-26T13:54:29.152Z,21.76
2023-04-26T13:55:34.419Z,21.74
2023-04-26T13:56:39.651Z,21.76
2023-04-26T13:57:44.853Z,21.77
2023-04-26T13:58:50.151Z,21.76
2023-04-26T13:59:55.376Z,21.74
2023-04-26T14:01:00.668Z,21.76
2023-04-26T14:02:06.115Z,21.76
2023-04-26T14:03:11.913Z,21.77
2023-04-26T14:04:17.794Z,21.77
2023-04-26T14:05:23.712Z,21.74
2023-04-26T14:06:29.340Z,21.76